^^
Grace C. Lehan Memorial Weather Station Historical Data
Daily Summary for August 30, 2021 Units:  Metric    English   Both
Daily Weekly Monthly Yearly
  High: Low: Average:
Temperature: 37.4 °C 22.7 °C 30 °C
Dew Point: 25.7 °C 21.7 °C 23.6 °C
Humidity: 95% 43.5% 72%
Wind Speed: 6.3km/h 0km/h 1.4km/h
Wind Gust: 22.5km/h - -
Wind- - WSW
Pressure: 1017.2 hPa 1008 hPa -
Precipitation: 0 mm    
 
 
Tabular Data for August 30, 2021
Time Temperature Dew Point Pressure Wind Wind Speed Wind Gust Humidity Rainfall Rate (Hourly) solar
00:09 24.6 °C 23.5 °C 1017.2 hPa Calm     94% 0 mm 0 W/m2
00:14 24.6 °C 23.5 °C 1016.8 hPa Calm     94% 0 mm 0 W/m2
00:19 24.5 °C 23.5 °C 1016.8 hPa Calm     94% 0 mm 0 W/m2
00:24 24.5 °C 23.5 °C 1016.8 hPa Calm     94% 0 mm 0 W/m2
00:29 24.5 °C 23.5 °C 1017.2 hPa Calm     94% 0 mm 0 W/m2
00:34 24.5 °C 23.5 °C 1017.2 hPa Calm     94% 0 mm 0 W/m2
00:39 24.5 °C 23.4 °C 1017.2 hPa Calm     94% 0 mm 0 W/m2
00:44 24.4 °C 23.4 °C 1017.2 hPa Calm     94% 0 mm 0 W/m2
00:49 24.4 °C 23.4 °C 1017.2 hPa Calm     94% 0 mm 0 W/m2
00:54 24.4 °C 23.4 °C 1017.2 hPa Calm     94% 0 mm 0 W/m2
00:56 24.4 °C 23.4 °C 1017.2 hPa Calm     94% 0 mm 0 W/m2
01:00 24.4 °C 23.4 °C 1017.2 hPa Calm     94% 0 mm 0 W/m2
01:30 24.4 °C 23.6 °C 1017.2 hPa Calm     95% 0 mm 0 W/m2
02:00 24.3 °C 23.4 °C 1016.5 hPa Calm     95% 0 mm 0 W/m2
02:30 24 °C 23.2 °C 1016.1 hPa Calm     95% 0 mm 0 W/m2
03:00 23.7 °C 22.7 °C 1016.1 hPa Calm     94% 0 mm 0 W/m2
03:30 23.5 °C 22.5 °C 1016.1 hPa Calm     94% 0 mm 0 W/m2
04:04 23.3 °C 22.3 °C 1015.8 hPa Calm     94% 0 mm 0 W/m2
04:09 23.3 °C 22.3 °C 1015.8 hPa Calm     94% 0 mm 0 W/m2
04:14 23.3 °C 22.3 °C 1015.5 hPa Calm     94% 0 mm 0 W/m2
04:19 23.3 °C 22.2 °C 1015.5 hPa Calm     94% 0 mm 0 W/m2
04:24 23.2 °C 22.2 °C 1015.5 hPa Calm     94% 0 mm 0 W/m2
04:29 23.2 °C 22.2 °C 1015.1 hPa Calm     94% 0 mm 0 W/m2
04:34 23.2 °C 22.2 °C 1015.1 hPa Calm     94% 0 mm 0 W/m2
04:39 23.2 °C 22.1 °C 1015.1 hPa Calm     93.5% 0 mm 0 W/m2
04:44 23.1 °C 21.9 °C 1014.8 hPa Calm     93% 0 mm 0 W/m2
04:49 23.1 °C 21.8 °C 1014.8 hPa Calm     93% 0 mm 0 W/m2
04:54 23 °C 21.8 °C 1014.8 hPa Calm     93% 0 mm 0 W/m2
04:59 23 °C 21.8 °C 1014.8 hPa Calm     93% 0 mm 0 W/m2
05:04 22.9 °C 21.8 °C 1014.8 hPa Calm     93% 0 mm 0 W/m2
05:09 22.9 °C 21.8 °C 1014.8 hPa Calm     93% 0 mm 0 W/m2
05:14 22.9 °C 21.7 °C 1014.8 hPa Calm     93% 0 mm 0 W/m2
05:19 22.9 °C 21.7 °C 1014.8 hPa Calm     93% 0 mm 0 W/m2
05:24 22.8 °C 21.7 °C 1014.4 hPa Calm     93.5% 0 mm 0 W/m2
05:29 22.8 °C 21.8 °C 1014.8 hPa Calm     94% 0 mm 0 W/m2
05:34 22.8 °C 21.8 °C 1014.8 hPa Calm     94% 0 mm 0 W/m2
05:39 22.8 °C 21.8 °C 1014.8 hPa Calm     94% 0 mm 5 W/m2
05:44 22.7 °C 21.7 °C 1014.8 hPa Calm     94% 0 mm 9 W/m2
05:49 22.7 °C 21.7 °C 1014.8 hPa Calm     94% 0 mm 11 W/m2
05:54 22.7 °C 21.7 °C 1014.8 hPa Calm     94% 0 mm 12 W/m2
05:59 22.8 °C 21.7 °C 1014.8 hPa Calm     94% 0 mm 16 W/m2
06:04 22.8 °C 21.8 °C 1015.1 hPa Calm     94% 0 mm 18 W/m2
06:09 22.8 °C 21.8 °C 1015.1 hPa SSE 0.2 km/h 3.2 km/h 94% 0 mm 19 W/m2
06:14 22.8 °C 21.8 °C 1015.5 hPa Calm   3.2 km/h 94% 0 mm 21 W/m2
06:19 22.9 °C 21.8 °C 1015.5 hPa Calm   3.2 km/h 94% 0 mm 21 W/m2
06:24 22.9 °C 21.9 °C 1015.1 hPa Calm   3.2 km/h 94% 0 mm 23 W/m2
06:29 23 °C 22 °C 1015.1 hPa Calm   3.2 km/h 94% 0 mm 28 W/m2
06:34 23.1 °C 22.1 °C 1015.1 hPa Calm   3.2 km/h 94.2% 0 mm 37 W/m2
06:39 23.2 °C 22.3 °C 1015.1 hPa Calm     95% 0 mm 42 W/m2
06:44 23.3 °C 22.5 °C 1015.1 hPa Calm     95% 0 mm 46 W/m2
06:49 23.6 °C 22.7 °C 1015.1 hPa Calm     95% 0 mm 56 W/m2
06:54 23.9 °C 23.1 °C 1015.1 hPa Calm     95% 0 mm 58 W/m2
06:59 24.3 °C 23.4 °C 1015.1 hPa Calm     95% 0 mm 60 W/m2
07:04 24.7 °C 23.7 °C 1015.1 hPa Calm     94.3% 0 mm 62 W/m2
07:09 25.1 °C 23.9 °C 1015.1 hPa Calm     93.1% 0 mm 63 W/m2
07:14 25.6 °C 24.2 °C 1015.1 hPa Calm     92.2% 0 mm 65 W/m2
07:19 26.1 °C 24.4 °C 1015.1 hPa Calm     90.5% 0 mm 69 W/m2
07:24 26.5 °C 24.5 °C 1015.1 hPa Calm     88.9% 0 mm 105 W/m2
07:29 26.9 °C 24.5 °C 1015.1 hPa Calm     86.8% 0 mm 304 W/m2
07:34 27.3 °C 24.7 °C 1014.8 hPa Calm     85.6% 0 mm 323 W/m2
07:39 27.6 °C 24.6 °C 1014.8 hPa Calm     83.6% 0 mm 343 W/m2
07:44 27.8 °C 24.5 °C 1014.8 hPa Calm     82% 0 mm 364 W/m2
07:49 28.1 °C 24.6 °C 1014.8 hPa Calm     81.3% 0 mm 383 W/m2
07:54 28.4 °C 24.8 °C 1015.1 hPa WSW 0.2 km/h 4.8 km/h 81.1% 0 mm 401 W/m2
07:59 28.6 °C 24.7 °C 1015.1 hPa Calm   4.8 km/h 79.6% 0 mm 417 W/m2
08:04 29 °C 25 °C 1014.8 hPa Calm     79% 0 mm 434 W/m2
08:09 29.2 °C 24.8 °C 1014.8 hPa Calm     77.3% 0 mm 448 W/m2
08:14 29.3 °C 24.6 °C 1014.8 hPa Calm     75.8% 0 mm 452 W/m2
08:19 29.5 °C 24.3 °C 1014.8 hPa Calm     73.5% 0 mm 471 W/m2
08:24 29.7 °C 24.3 °C 1014.8 hPa WSW 0.6 km/h 9.7 km/h 72.8% 0 mm 483 W/m2
08:29 29.8 °C 24.5 °C 1014.8 hPa Calm   9.7 km/h 73.4% 0 mm 499 W/m2
08:34 29.9 °C 24.6 °C 1014.8 hPa Calm   9.7 km/h 73.2% 0 mm 515 W/m2
08:39 30.1 °C 24.7 °C 1014.8 hPa Calm   1.6 km/h 72.8% 0 mm 520 W/m2
08:44 30.3 °C 24.6 °C 1014.8 hPa Calm   1.6 km/h 71.7% 0 mm 538 W/m2
08:49 30.6 °C 24.6 °C 1014.8 hPa WSW 0.2 km/h 3.2 km/h 70.8% 0 mm 554 W/m2
08:54 30.8 °C 24.4 °C 1014.8 hPa WSW 1.1 km/h 9.7 km/h 69.1% 0 mm 571 W/m2
08:59 30.9 °C 24.5 °C 1014.8 hPa Calm   9.7 km/h 68.8% 0 mm 571 W/m2
09:04 31.1 °C 24.9 °C 1014.4 hPa Calm   9.7 km/h 69.7% 0 mm 585 W/m2
09:09 31.3 °C 24.7 °C 1014.4 hPa Calm   1.6 km/h 68.2% 0 mm 594 W/m2
09:14 31.5 °C 24.4 °C 1014.4 hPa WSW 0.2 km/h 4.8 km/h 66.3% 0 mm 599 W/m2
09:19 31.6 °C 24.6 °C 1014.4 hPa WSW 0.3 km/h 6.4 km/h 66.2% 0 mm 613 W/m2
09:24 31.7 °C 24.2 °C 1014.4 hPa West 1.3 km/h 11.3 km/h 64.6% 0 mm 633 W/m2
09:29 31.7 °C 24.1 °C 1014.4 hPa WSW 1.6 km/h 11.3 km/h 64% 0 mm 650 W/m2
09:34 31.9 °C 24.7 °C 1014.1 hPa WSW 0.5 km/h 11.3 km/h 65.5% 0 mm 666 W/m2
09:39 32.2 °C 24.6 °C 1014.1 hPa WSW 1.8 km/h 9.7 km/h 64.2% 0 mm 689 W/m2
09:44 32.3 °C 24.6 °C 1014.1 hPa WSW 1.9 km/h 14.5 km/h 63.6% 0 mm 700 W/m2
09:49 32.6 °C 25.1 °C 1014.1 hPa West 1.4 km/h 14.5 km/h 64.7% 0 mm 708 W/m2
09:54 32.8 °C 24.7 °C 1014.1 hPa WSW 3.9 km/h 14.5 km/h 62.6% 0 mm 721 W/m2
09:59 32.8 °C 25.1 °C 1014.1 hPa SW 0.3 km/h 14.5 km/h 63.6% 0 mm 731 W/m2
10:04 32.9 °C 24.9 °C 1014.1 hPa WSW 1.6 km/h 14.5 km/h 62.7% 0 mm 747 W/m2
10:09 33.1 °C 25.1 °C 1014.1 hPa WSW 0.8 km/h 9.7 km/h 63.1% 0 mm 765 W/m2
10:14 33.2 °C 24.9 °C 1014.1 hPa West 2.4 km/h 16.1 km/h 61.8% 0 mm 773 W/m2
10:19 33.3 °C 24.8 °C 1013.8 hPa WSW 2.7 km/h 16.1 km/h 61.2% 0 mm 789 W/m2
10:24 33.4 °C 24.9 °C 1013.8 hPa WSW 2.4 km/h 16.1 km/h 61.1% 0 mm 800 W/m2
10:29 33.6 °C 25.2 °C 1013.8 hPa WSW 0.5 km/h 16.1 km/h 61.8% 0 mm 809 W/m2
10:34 33.7 °C 24.9 °C 1013.8 hPa West 2.4 km/h 16.1 km/h 60.4% 0 mm 821 W/m2
10:39 33.8 °C 25.4 °C 1013.8 hPa West 1.3 km/h 9.7 km/h 61.5% 0 mm 824 W/m2
10:44 34 °C 25.3 °C 1013.8 hPa West 0.2 km/h 9.7 km/h 60.5% 0 mm 837 W/m2
10:49 34.2 °C 25.6 °C 1013.4 hPa West 3.1 km/h 11.3 km/h 61% 0 mm 847 W/m2
10:54 34.4 °C 25.5 °C 1013.4 hPa SW 0.8 km/h 11.3 km/h 60% 0 mm 854 W/m2
10:59 34.5 °C 25.1 °C 1013.4 hPa SW 2.7 km/h 11.3 km/h 58.1% 0 mm 863 W/m2
11:04 34.6 °C 24.9 °C 1013.4 hPa SW 3.9 km/h 11.3 km/h 57.4% 0 mm 870 W/m2
11:09 34.6 °C 25.2 °C 1013.4 hPa WSW 1.4 km/h 11.3 km/h 58.4% 0 mm 879 W/m2
11:14 34.7 °C 25.7 °C 1013.4 hPa West 0.8 km/h 11.3 km/h 59.4% 0 mm 888 W/m2
11:19 34.9 °C 25.4 °C 1013.4 hPa WSW 4.5 km/h 12.9 km/h 57.9% 0 mm 893 W/m2
11:24 35 °C 24.7 °C 1013.4 hPa SW 2.7 km/h 12.9 km/h 55.3% 0 mm 904 W/m2
11:29 35.1 °C 25.2 °C 1013.4 hPa SW 2.3 km/h 12.9 km/h 56.7% 0 mm 905 W/m2
11:34 35.2 °C 25.2 °C 1013.4 hPa SW 1.3 km/h 12.9 km/h 56.6% 0 mm 905 W/m2
11:39 35.2 °C 25.7 °C 1013.1 hPa WSW 1.6 km/h 6.4 km/h 57.7% 0 mm 916 W/m2
11:44 35.3 °C 25.2 °C 1013.1 hPa SW 3.1 km/h 14.5 km/h 55.8% 0 mm 916 W/m2
11:49 35.4 °C 25.3 °C 1013.1 hPa SW 1.9 km/h 14.5 km/h 55.8% 0 mm 926 W/m2
11:54 35.5 °C 25 °C 1013.1 hPa WSW 3.2 km/h 17.7 km/h 54.7% 0 mm 933 W/m2
11:59 35.5 °C 25.5 °C 1013.1 hPa West 2.4 km/h 17.7 km/h 56.3% 0 mm 935 W/m2
12:04 35.6 °C 25.2 °C 1013.1 hPa WSW 0.8 km/h 1.6 km/h 55% 0 mm 939 W/m2
12:09 35.7 °C 25.2 °C 1013.1 hPa West 3.4 km/h 16.1 km/h 54.9% 0 mm 940 W/m2
12:14 35.7 °C 24.4 °C 1012.8 hPa West 4.7 km/h 16.1 km/h 52.4% 0 mm 944 W/m2
12:19 35.6 °C 24.8 °C 1012.8 hPa SW 5.5 km/h 16.1 km/h 53.9% 0 mm 949 W/m2
12:24 35.6 °C 25.1 °C 1012.8 hPa WSW 2.3 km/h 16.1 km/h 54.8% 0 mm 949 W/m2
12:29 35.5 °C 24.4 °C 1012.8 hPa West 5 km/h 16.1 km/h 52.8% 0 mm 953 W/m2
12:34 35.4 °C 24.6 °C 1012.8 hPa WSW 2.7 km/h 16.1 km/h 53.7% 0 mm 956 W/m2
12:39 35.5 °C 24.5 °C 1012.8 hPa WSW 4.7 km/h 11.3 km/h 53% 0 mm 956 W/m2
12:44 35.5 °C 24.7 °C 1012.4 hPa WSW 2.3 km/h 11.3 km/h 53.9% 0 mm 958 W/m2
12:49 35.6 °C 24.4 °C 1012.4 hPa WSW 1.9 km/h 11.3 km/h 52.8% 0 mm 962 W/m2
12:54 35.6 °C 24.1 °C 1012.1 hPa SW 2.4 km/h 11.3 km/h 51.5% 0 mm 965 W/m2
12:59 35.7 °C 24.2 °C 1012.1 hPa West 2.1 km/h 11.3 km/h 51.7% 0 mm 967 W/m2
13:04 35.8 °C 23.6 °C 1012.1 hPa WSW 3.4 km/h 11.3 km/h 49.4% 0 mm 967 W/m2
13:09 35.8 °C 24.1 °C 1012.1 hPa West 2.1 km/h 16.1 km/h 51.1% 0 mm 963 W/m2
13:14 35.9 °C 24.2 °C 1012.1 hPa WSW 5 km/h 17.7 km/h 51% 0 mm 963 W/m2
13:19 36.1 °C 23.9 °C 1012.1 hPa West 6.3 km/h 17.7 km/h 49.7% 0 mm 962 W/m2
13:24 36.1 °C 24.1 °C 1012.1 hPa WNW 4.8 km/h 22.5 km/h 50% 0 mm 960 W/m2
13:29 36.2 °C 23.9 °C 1012.1 hPa West 5.5 km/h 22.5 km/h 49.3% 0 mm 954 W/m2
13:34 36.2 °C 23.9 °C 1011.7 hPa West 4.3 km/h 22.5 km/h 49.4% 0 mm 953 W/m2
13:39 36.3 °C 23.7 °C 1011.7 hPa WSW 3.4 km/h 14.5 km/h 48.3% 0 mm 954 W/m2
13:44 36.5 °C 23.9 °C 1011.7 hPa West 2.4 km/h 19.3 km/h 48.7% 0 mm 951 W/m2
13:49 36.6 °C 23.8 °C 1011.7 hPa WSW 4.3 km/h 19.3 km/h 48% 0 mm 951 W/m2
13:54 36.7 °C 23.7 °C 1011.7 hPa WSW 2.6 km/h 19.3 km/h 47.5% 0 mm 946 W/m2
13:59 36.6 °C 23.2 °C 1011.4 hPa WSW 6 km/h 19.3 km/h 46.3% 0 mm 946 W/m2
14:04 36.6 °C 23.1 °C 1011.4 hPa West 3.9 km/h 19.3 km/h 46.2% 0 mm 946 W/m2
14:09 36.6 °C 23.3 °C 1011.4 hPa SW 4 km/h 14.5 km/h 46.5% 0 mm 937 W/m2
14:14 36.8 °C 23.7 °C 1011.1 hPa WSW 3.7 km/h 16.1 km/h 47.1% 0 mm 937 W/m2
14:19 36.9 °C 23.5 °C 1011.1 hPa West 3.7 km/h 16.1 km/h 46.4% 0 mm 925 W/m2
14:24 36.9 °C 23.5 °C 1011.1 hPa West 3.2 km/h 16.1 km/h 46.2% 0 mm 919 W/m2
14:29 37.1 °C 23.9 °C 1011.1 hPa WSW 3.7 km/h 16.1 km/h 47.2% 0 mm 914 W/m2
14:34 37 °C 23.2 °C 1010.7 hPa SW 4.7 km/h 16.1 km/h 45.3% 0 mm 909 W/m2
14:39 36.9 °C 23.4 °C 1010.7 hPa WSW 3.9 km/h 16.1 km/h 45.9% 0 mm 905 W/m2
14:44 37 °C 23.6 °C 1010.7 hPa WSW 4.7 km/h 20.9 km/h 46.5% 0 mm 896 W/m2
14:49 37.1 °C 23.5 °C 1010.7 hPa SW 5.1 km/h 20.9 km/h 45.9% 0 mm 889 W/m2
14:54 37.1 °C 23.4 °C 1010.4 hPa SW 3.4 km/h 20.9 km/h 45.6% 0 mm 881 W/m2
14:59 37.2 °C 24 °C 1010.4 hPa WSW 3.7 km/h 20.9 km/h 47.1% 0 mm 874 W/m2
15:04 37.2 °C 23.5 °C 1010.4 hPa WSW 5.1 km/h 20.9 km/h 45.6% 0 mm 861 W/m2
15:09 37.2 °C 23.5 °C 1010.4 hPa WSW 4 km/h 16.1 km/h 45.5% 0 mm 858 W/m2
15:14 37.3 °C 23.6 °C 1010 hPa WSW 1.9 km/h 16.1 km/h 45.5% 0 mm 842 W/m2
15:19 37.3 °C 23.3 °C 1010 hPa West 3.1 km/h 16.1 km/h 44.8% 0 mm 840 W/m2
15:24 37.3 °C 23.6 °C 1010 hPa WSW 4.2 km/h 16.1 km/h 45.3% 0 mm 830 W/m2
15:29 37.4 °C 23.5 °C 1009.7 hPa SW 2.6 km/h 16.1 km/h 45.2% 0 mm 816 W/m2
15:34 37.3 °C 23.7 °C 1009.7 hPa WSW 2.9 km/h 16.1 km/h 45.8% 0 mm 810 W/m2
15:39 37.1 °C 23.4 °C 1009.7 hPa WSW 3.4 km/h 11.3 km/h 45.7% 0 mm 812 W/m2
15:44 37 °C 23.4 °C 1009.4 hPa WSW 3.2 km/h 14.5 km/h 45.9% 0 mm 789 W/m2
15:49 36.9 °C 23.2 °C 1009.4 hPa WSW 5.1 km/h 17.7 km/h 45.3% 0 mm 775 W/m2
15:54 36.9 °C 23.3 °C 1009.4 hPa SW 4.5 km/h 17.7 km/h 45.8% 0 mm 780 W/m2
15:59 36.9 °C 23.4 °C 1009 hPa SW 4.3 km/h 17.7 km/h 46% 0 mm 752 W/m2
16:00 36.9 °C 23.1 °C 1009 hPa SW 3.2 km/h 17.7 km/h 45% 0 mm 742 W/m2
16:09 36.8 °C 22.4 °C 1009 hPa SW 6.1 km/h 11.3 km/h 43.5% 0 mm 729 W/m2
16:14 36.8 °C 22.4 °C 1008.7 hPa SW 5 km/h 12.9 km/h 43.7% 0 mm 712 W/m2
16:19 36.8 °C 22.8 °C 1009 hPa SW 5.1 km/h 12.9 km/h 44.8% 0 mm 645 W/m2
16:24 36.6 °C 22.7 °C 1009 hPa WSW 3.2 km/h 12.9 km/h 44.8% 0 mm 77 W/m2
16:29 36.4 °C 22.7 °C 1009 hPa WSW 3.2 km/h 14.5 km/h 45.3% 0 mm 84 W/m2
16:34 36.3 °C 22.9 °C 1008.7 hPa West 4.8 km/h 17.7 km/h 46% 0 mm 62 W/m2
16:39 36.3 °C 23.1 °C 1008.7 hPa West 3.4 km/h 17.7 km/h 46.7% 0 mm 63 W/m2
16:44 36.3 °C 23.2 °C 1008.7 hPa SW 3.7 km/h 17.7 km/h 47.2% 0 mm 76 W/m2
16:49 36.3 °C 22.9 °C 1008.7 hPa West 4 km/h 17.7 km/h 46.2% 0 mm 98 W/m2
16:54 36.2 °C 22.8 °C 1008.7 hPa WSW 3.5 km/h 17.7 km/h 46.1% 0 mm 116 W/m2
16:59 36.2 °C 23 °C 1008.7 hPa WSW 4.2 km/h 17.7 km/h 46.8% 0 mm 114 W/m2
17:04 36.1 °C 23.1 °C 1008.7 hPa SW 4.7 km/h 17.7 km/h 47.1% 0 mm 76 W/m2
17:09 35.8 °C 22.8 °C 1008.4 hPa SW 5.3 km/h 17.7 km/h 47% 0 mm 76 W/m2
17:14 35.6 °C 22.8 °C 1008.7 hPa WSW 5.5 km/h 19.3 km/h 47.6% 0 mm 77 W/m2
17:19 35.6 °C 22.8 °C 1008.4 hPa WSW 4.2 km/h 19.3 km/h 47.8% 0 mm 90 W/m2
17:24 35.4 °C 22.9 °C 1008.4 hPa West 3.7 km/h 19.3 km/h 48.4% 0 mm 104 W/m2
17:29 35.3 °C 22.9 °C 1008.4 hPa WSW 4.7 km/h 19.3 km/h 48.8% 0 mm 107 W/m2
17:34 35.3 °C 23.4 °C 1008.7 hPa SW 1.1 km/h 19.3 km/h 50.3% 0 mm 100 W/m2
17:39 35.2 °C 25.2 °C 1008.7 hPa SW 1.4 km/h 12.9 km/h 56.4% 0 mm 105 W/m2
17:44 34.9 °C 25.4 °C 1008.7 hPa SSW 2.6 km/h 12.9 km/h 57.9% 0 mm 105 W/m2
17:49 34.6 °C 25.3 °C 1008.7 hPa SSW 2.7 km/h 12.9 km/h 58.7% 0 mm 65 W/m2
17:54 34.2 °C 25.3 °C 1008.7 hPa SSW 0.6 km/h 12.9 km/h 59.8% 0 mm 33 W/m2
17:59 33.8 °C 25.2 °C 1008.7 hPa SSW 1.1 km/h 12.9 km/h 60.7% 0 mm 72 W/m2
18:04 33.6 °C 25.2 °C 1008.7 hPa SSW 0.3 km/h 12.9 km/h 61.6% 0 mm 77 W/m2
18:09 33.4 °C 25.4 °C 1008.7 hPa SSW 1.8 km/h 8 km/h 62.8% 0 mm 53 W/m2
18:14 33.3 °C 25.3 °C 1009 hPa SW 1.4 km/h 8 km/h 62.8% 0 mm 76 W/m2
18:19 33.2 °C 25.2 °C 1009 hPa SSW 1 km/h 8 km/h 63% 0 mm 81 W/m2
18:24 33.1 °C 25.1 °C 1008.7 hPa SSW 0.2 km/h 8 km/h 63% 0 mm 62 W/m2
18:29 33 °C 25.3 °C 1008.7 hPa SSW 0.5 km/h 8 km/h 63.9% 0 mm 56 W/m2
18:34 32.9 °C 25 °C 1008.4 hPa SSW 0.5 km/h 8 km/h 63.1% 0 mm 30 W/m2
18:39 32.8 °C 25.1 °C 1008.4 hPa SSW 0.8 km/h 8 km/h 63.8% 0 mm 33 W/m2
18:44 32.7 °C 24.8 °C 1008 hPa SSW 1.3 km/h 8 km/h 63% 0 mm 16 W/m2
18:49 32.6 °C 24.8 °C 1008 hPa SSW 0.5 km/h 8 km/h 63.6% 0 mm 16 W/m2
18:54 32.4 °C 24.8 °C 1008.4 hPa Calm   8 km/h 64% 0 mm 14 W/m2
18:59 32.3 °C 24.6 °C 1008.7 hPa SSW 0.5 km/h 8 km/h 63.8% 0 mm 16 W/m2
19:04 32.2 °C 24.5 °C 1008.7 hPa SSW 0.2 km/h 8 km/h 63.8% 0 mm 16 W/m2
19:09 32.1 °C 24.4 °C 1009 hPa SSW 0.3 km/h 4.8 km/h 64% 0 mm 16 W/m2
19:13 32.1 °C 24.5 °C 1009.4 hPa SSW 1 km/h 4.8 km/h 64.5% 0 mm 14 W/m2
19:30 29.3 °C 22.5 °C 1011.4 hPa NW 3.2 km/h 19.3 km/h 67% 0 mm 7 W/m2
20:04 25.3 °C 22.6 °C 1012.8 hPa NW 4 km/h 12.9 km/h 85% 1.52 mm 0 W/m2
20:09 25.1 °C 22.4 °C 1012.4 hPa NNW 0.5 km/h 12.9 km/h 85.4% 1.78 mm 0 W/m2
20:14 24.8 °C 22.3 °C 1012.8 hPa Calm   12.9 km/h 86.5% 1.78 mm 0 W/m2
20:19 24.5 °C 22.4 °C 1012.8 hPa Calm   12.9 km/h 87.9% 1.78 mm 0 W/m2
20:24 24.4 °C 22.4 °C 1012.8 hPa Calm   12.9 km/h 88.7% 1.78 mm 0 W/m2
20:29 24.3 °C 22.4 °C 1013.1 hPa Calm   12.9 km/h 89.5% 1.78 mm 0 W/m2
20:34 24.3 °C 22.6 °C 1013.1 hPa Calm   12.9 km/h 90.4% 3.3 mm 0 W/m2
20:39 24.3 °C 22.7 °C 1012.8 hPa Calm     91% 4.06 mm 0 W/m2
20:44 24.2 °C 22.7 °C 1012.4 hPa Calm     91% 4.32 mm 0 W/m2
20:49 24.1 °C 22.6 °C 1012.1 hPa Calm     91.2% 4.32 mm 0 W/m2
20:54 24.1 °C 22.7 °C 1012.1 hPa Calm     92% 4.32 mm 0 W/m2
20:59 24.1 °C 22.7 °C 1012.1 hPa Calm     92% 4.32 mm 0 W/m2
21:04 24.1 °C 22.7 °C 1012.1 hPa Calm     92% 4.32 mm 0 W/m2
21:09 24.1 °C 22.7 °C 1012.1 hPa Calm     92% 2.54 mm 0 W/m2
21:14 24.1 °C 22.8 °C 1012.1 hPa Calm     92.9% 2.54 mm 0 W/m2
21:19 24.1 °C 22.9 °C 1012.4 hPa Calm     93% 2.54 mm 0 W/m2
21:24 24.1 °C 22.9 °C 1012.4 hPa Calm     93% 2.54 mm 0 W/m2
21:29 24.1 °C 22.9 °C 1012.4 hPa Calm     93% 2.54 mm 0 W/m2
21:34 24.1 °C 22.9 °C 1012.4 hPa Calm     93% 2.54 mm 0 W/m2
21:39 24.1 °C 22.8 °C 1012.1 hPa Calm     93% 2.54 mm 0 W/m2
21:44 24.1 °C 22.8 °C 1012.1 hPa Calm   1.6 km/h 93% 2.54 mm 0 W/m2
21:49 24.1 °C 22.9 °C 1011.7 hPa Calm   1.6 km/h 93.4% 2.79 mm 0 W/m2
21:54 23.9 °C 22.9 °C 1011.4 hPa Calm   1.6 km/h 94% 2.79 mm 0 W/m2
21:59 23.9 °C 22.9 °C 1011.4 hPa Calm   1.6 km/h 94% 2.79 mm 0 W/m2
22:04 23.9 °C 22.9 °C 1011.4 hPa Calm   1.6 km/h 94% 2.79 mm 0 W/m2
22:09 23.9 °C 22.9 °C 1011.1 hPa Calm     94% 0.25 mm 0 W/m2
22:14 23.9 °C 22.9 °C 1011.4 hPa Calm     94% 0.25 mm 0 W/m2
22:19 23.9 °C 22.9 °C 1011.4 hPa Calm     94% 0.51 mm 0 W/m2
22:24 23.9 °C 22.9 °C 1011.4 hPa Calm     94% 0.51 mm 0 W/m2
22:29 23.9 °C 22.9 °C 1011.4 hPa Calm     94% 0.51 mm 0 W/m2
22:34 23.9 °C 22.8 °C 1011.4 hPa Calm     94% 0.51 mm 0 W/m2
22:39 23.8 °C 22.8 °C 1011.1 hPa Calm     94% 0.51 mm 0 W/m2
22:44 23.8 °C 22.8 °C 1011.1 hPa Calm     94% 0.51 mm 0 W/m2
22:49 23.7 °C 22.7 °C 1011.1 hPa Calm     94% 0.51 mm 0 W/m2
22:54 23.7 °C 22.7 °C 1011.1 hPa Calm     94% 0.51 mm 0 W/m2
22:59 23.7 °C 22.7 °C 1011.1 hPa Calm     94% 0.51 mm 0 W/m2
23:04 23.7 °C 22.7 °C 1011.1 hPa Calm     94% 0.25 mm 0 W/m2
23:09 23.7 °C 22.6 °C 1011.1 hPa Calm     94% 0.25 mm 0 W/m2
23:10 23.7 °C 22.6 °C 1011.1 hPa Calm     94% 0.25 mm 0 W/m2
23:30 23.6 °C 22.7 °C 1010.7 hPa Calm     95% 0 mm 0 W/m2
Hartford County Weather
Compliments of Weather Underground - 2 mb